Flight Track Log - Related Links

Times and Time Zones

All times are in EDT time to prevent confusion due to time zone crossing. See the SWA862 flight status page for this flight to view local times or setup timezone preferences in your user account.

Time Position Orientation Groundspeed Altitude Reporting Facility
EDT Latitude Longitude Course Direction KTS MPH feet Rate Location/Type
Sat 12:49:57 PM 33.4333 -111.9833 96° East 176 203 2,000  Level Phoenix TRACON
Sat 12:50:19 PM 33.4319 -111.9675 96° East 184 212 2,400 2,000 Climbing Albuquerque Center
Sat 12:51:21 PM 33.4353 -111.8917 87° East 227 261 4,800 2,274 Climbing Albuquerque Center
Sat 12:52:23 PM 33.3797 -111.8847 174° South 268 308 7,100 2,661 Climbing Albuquerque Center
Sat 12:53:25 PM 33.3800 -111.9925 270° West 274 315 10,300 2,371 Climbing Albuquerque Center
Sat 12:54:27 PM 33.3894 -112.0956 276° West 317 365 12,000 2,032 Climbing Albuquerque Center
Sat 12:55:29 PM 33.3986 -112.2044 276° West 329 379 14,500 2,226 Climbing Albuquerque Center
Sat 12:56:31 PM 33.4094 -112.3203 276° West 346 398 16,600 2,032 Climbing Albuquerque Center
Sat 12:57:33 PM 33.4200 -112.4389 276° West 356 410 18,700 1,887 Climbing Albuquerque Center
Sat 12:58:35 PM 33.4306 -112.5606 276° West 365 420 20,500 1,645 Climbing Albuquerque Center
Sat 12:59:37 PM 33.4425 -112.6956 276° West 373 429 22,100 1,610 Climbing Albuquerque Center
Sat 01:00:38 PM 33.4528 -112.8236 276° West 383 441 23,800 1,561 Climbing Albuquerque Center
Sat 01:01:40 PM 33.4767 -112.9478 283° West 385 443 25,300 1,548 Climbing Albuquerque Center
Sat 01:02:42 PM 33.5019 -113.0739 284° West 388 447 27,000 1,790 Climbing Albuquerque Center
Sat 01:03:44 PM 33.5289 -113.2211 282° West 381 438 29,000 1,452 Climbing Albuquerque Center
Sat 01:04:46 PM 33.5519 -113.3419 283° West 376 433 30,000 484 Climbing Albuquerque Center
Sat 01:05:48 PM 33.5758 -113.4675 283° West 383 441 30,000 774 Level Albuquerque Center
Sat 01:06:50 PM 33.5994 -113.5906 283° West 382 440 31,600 968 Climbing Albuquerque Center
Sat 01:07:52 PM 33.6244 -113.7275 282° West 370 426 32,000 194 Climbing Albuquerque Center
Sat 01:08:54 PM 33.6467 -113.8458 283° West 366 421 32,000  Level Albuquerque Center
Sat 01:09:56 PM 33.6675 -113.9681 282° West 371 427 32,000  Level Albuquerque Center
Sat 01:10:58 PM 33.6903 -114.0881 283° West 370 426 32,000  Level Albuquerque Center
Sat 01:12:00 PM 33.7133 -114.2144 282° West 372 428 32,000  Level Albuquerque Center
Sat 01:13:02 PM 33.7386 -114.3333 284° West 369 425 32,000  Level Albuquerque Center
Sat 01:13:55 PM 33.7675 -114.4386 288° West 371 427 32,000  Level Los Angeles Center
Sat 01:14:57 PM 33.7975 -114.5572 287° West 371 427 32,000  Level Los Angeles Center
Sat 01:15:59 PM 33.8344 -114.7000 287° West 374 430 32,000  Level Los Angeles Center
Sat 01:17:01 PM 33.8647 -114.8192 287° West 375 432 32,000  Level Los Angeles Center
Sat 01:18:03 PM 33.8947 -114.9375 287° West 372 428 32,000  Level Los Angeles Center
Sat 01:19:05 PM 33.9236 -115.0569 286° West 372 428 32,000  Level Los Angeles Center
Sat 01:20:07 PM 33.9531 -115.1750 287° West 372 428 32,000  Level Los Angeles Center
Sat 01:21:09 PM 33.9822 -115.2942 286° West 371 427 32,000  Level Los Angeles Center
Sat 01:22:11 PM 34.0175 -115.4367 287° West 371 427 32,000  Level Los Angeles Center
Sat 01:23:13 PM 34.0475 -115.5561 287° West 373 429 32,000  Level Los Angeles Center
Sat 01:24:15 PM 34.0764 -115.6786 286° West 378 435 32,000  Level Los Angeles Center
Sat 01:25:17 PM 34.1069 -115.7994 287° West 379 436 32,000  Level Los Angeles Center
Sat 01:26:19 PM 34.1364 -115.9228 286° West 380 437 32,000  Level Los Angeles Center
Sat 01:27:22 PM 34.1653 -116.0439 286° West 379 436 32,000  Level Los Angeles Center
Sat 01:28:24 PM 34.2008 -116.1928 286° West 383 441 32,000  Level Los Angeles Center
Sat 01:29:26 PM 34.2297 -116.3164 286° West 383 441 32,000  Level Los Angeles Center
Sat 01:30:28 PM 34.2592 -116.4389 286° West 381 438 32,000  Level Los Angeles Center
Sat 01:31:30 PM 34.2883 -116.5608 286° West 379 436 32,000  Level Los Angeles Center
Sat 01:32:32 PM 34.3175 -116.6842 286° West 381 438 32,000  Level Los Angeles Center
Sat 01:33:34 PM 34.3461 -116.8067 286° West 379 436 32,000  Level Los Angeles Center
Sat 01:34:36 PM 34.3806 -116.9547 286° West 381 438 32,000  Level Los Angeles Center
Sat 01:35:38 PM 34.4086 -117.0772 286° West 378 435 32,000  Level Los Angeles Center
Sat 01:36:40 PM 34.4375 -117.2022 286° West 383 441 32,000  Level Los Angeles Center
Sat 01:37:42 PM 34.4661 -117.3289 285° West 388 447 32,000  Level Los Angeles Center
Sat 01:38:44 PM 34.4953 -117.4558 286° West 390 449 32,000  Level Los Angeles Center
Sat 01:39:46 PM 34.5236 -117.5842 285° West 392 451 32,000  Level Los Angeles Center
Sat 01:40:48 PM 34.5514 -117.7139 285° West 396 456 32,000  Level Los Angeles Center
Sat 01:41:51 PM 34.5875 -117.8683 286° West 395 455 32,000  Level Los Angeles Center
Sat 01:42:53 PM 34.6156 -117.9986 285° West 397 457 32,000  Level Los Angeles Center
Sat 01:43:55 PM 34.6669 -118.1164 298° West 403 464 32,000  Level Los Angeles Center
Sat 01:44:57 PM 34.7381 -118.2194 310° West 396 456 32,000  Level Los Angeles Center
Sat 01:45:59 PM 34.8081 -118.3208 310° West 392 451 32,000  Level Los Angeles Center
Sat 01:47:01 PM 34.8794 -118.4244 310° West 396 456 32,000  Level Los Angeles Center
Sat 01:48:03 PM 34.9608 -118.5417 310° West 396 456 32,000  Level Los Angeles Center
Sat 01:49:05 PM 35.0322 -118.6442 310° West 397 457 32,000  Level Los Angeles Center
Sat 01:50:07 PM 35.1033 -118.7458 311° West 395 455 32,000  Level Los Angeles Center
Sat 01:51:09 PM 35.1750 -118.8447 312° West 389 448 32,000  Level Los Angeles Center
Sat 01:52:11 PM 35.2961 -118.9156 334° Northwest 402 463 32,000  Level Los Angeles Center
Sat 01:53:13 PM 35.3964 -118.9703 336° Northwest 399 459 32,000  Level Los Angeles Center
Sat 01:54:16 PM 35.4958 -119.0258 336° Northwest 396 456 32,000  Level Los Angeles Center
Sat 01:55:18 PM 35.5961 -119.0817 336° Northwest 396 456 32,000  Level Los Angeles Center
Sat 01:55:58 PM 35.6528 -119.1153 334° Northwest 400 460 32,000  Level Oakland Center
Sat 01:56:59 PM 35.7725 -119.1825 336° Northwest 397 457 32,000 -49 Level Oakland Center
Sat 01:58:01 PM 35.8719 -119.2372 336° Northwest 395 455 31,900  Descending Oakland Center
Sat 01:59:02 PM 35.9717 -119.2947 335° Northwest 396 456 32,000 49 Climbing Oakland Center
Sat 02:00:03 PM 36.0731 -119.3503 336° Northwest 403 464 32,000  Level Oakland Center
Sat 02:01:05 PM 36.1703 -119.4092 334° Northwest 393 452 32,000  Level Oakland Center
Sat 02:02:06 PM 36.2639 -119.4792 329° Northwest 394 453 32,000  Level Oakland Center
Sat 02:03:07 PM 36.3575 -119.5494 329° Northwest 394 453 32,000  Level Oakland Center
Sat 02:04:08 PM 36.4519 -119.6192 329° Northwest 396 456 32,000  Level Oakland Center
Sat 02:05:10 PM 36.5642 -119.7017 329° Northwest 394 453 32,000  Level Oakland Center
Sat 02:06:11 PM 36.6567 -119.7722 329° Northwest 392 451 32,000  Level Oakland Center
Sat 02:07:12 PM 36.7500 -119.8442 328° Northwest 395 455 32,000  Level Oakland Center
Sat 02:08:14 PM 36.8425 -119.9119 330° Northwest 387 445 32,000  Level Oakland Center
Sat 02:09:15 PM 36.9336 -119.9803 329° Northwest 385 443 32,000  Level Oakland Center
Sat 02:10:16 PM 37.0256 -120.0503 329° Northwest 387 445 32,000  Level Oakland Center
Sat 02:11:18 PM 37.1269 -120.1258 329° Northwest 384 442 32,000 -976 Level Oakland Center
Sat 02:12:19 PM 37.2183 -120.1942 329° Northwest 386 444 30,000 -2,459 Descending Oakland Center
Sat 02:13:20 PM 37.3119 -120.2689 328° Northwest 402 463 27,000 -2,683 Descending Oakland Center
Sat 02:14:22 PM 37.4058 -120.3325 332° Northwest 391 450 24,500 -1,756 Descending Oakland Center
Sat 02:15:23 PM 37.4883 -120.4092 324° Northwest 372 428 23,400 -1,154 Descending Oakland Center
Sat 02:15:40 PM 37.5167 -120.4500 311° West 359 413 23,000 -1,013 Descending Northern Cal TRACON
Sat 02:16:40 PM 37.6000 -120.5167 328° Northwest 366 421 22,100 -849 Descending Northern Cal TRACON
Sat 02:17:26 PM 37.6467 -120.5692 318° Northwest 367 422 21,500 -939 Descending Oakland Center
Sat 02:18:35 PM 37.7500 -120.6833 319° Northwest 366 421 20,300 -1,031 Descending Northern Cal TRACON
Sat 02:19:34 PM 37.8333 -120.7500 328° Northwest 365 420 19,300 -991 Descending Northern Cal TRACON
Sat 02:20:30 PM 37.9022 -120.8264 319° Northwest 364 419 18,400 -923 Descending Oakland Center
Sat 02:21:31 PM 37.9792 -120.9056 321° Northwest 357 411 17,500 -984 Descending Oakland Center
Sat 02:22:32 PM 38.0553 -120.9819 322° Northwest 351 404 16,400 -1,024 Descending Oakland Center
Sat 02:23:34 PM 38.1175 -121.0639 314° West 326 375 15,400 -1,282 Descending Oakland Center
Sat 02:24:29 PM 38.1667 -121.1333 312° West 298 343 13,900 -1,565 Descending Northern Cal TRACON
Sat 02:25:29 PM 38.2167 -121.2167 307° West 274 315 12,400 -1,650 Descending Northern Cal TRACON
Sat 02:26:29 PM 38.2667 -121.2833 314° West 279 321 10,600 -1,700 Descending Northern Cal TRACON
Sat 02:27:29 PM 38.3167 -121.3667 307° West 272 313 9,000 -1,737 Descending Northern Cal TRACON
Sat 02:28:23 PM 38.3667 -121.4333 314° West 274 315 7,300 -1,105 Descending Northern Cal TRACON
Sat 02:29:23 PM 38.4167 -121.5000 314° West 251 289 6,900 -600 Descending Northern Cal TRACON
Sat 02:30:23 PM 38.4500 -121.5667 303° West 229 264 6,100 -1,000 Descending Northern Cal TRACON
Sat 02:31:23 PM 38.5000 -121.6000 332° Northwest 194 223 4,900 -1,400 Descending Northern Cal TRACON
Sat 02:32:23 PM 38.5500 -121.6000 360° North 171 197 3,300 -1,500 Descending Northern Cal TRACON
Sat 02:33:23 PM 38.6000 -121.6000 360° North 156 180 1,900 -1,100 Descending Northern Cal TRACON
Sat 02:34:23 PM 38.6333 -121.6000 360° North 136 157 1,100 -750 Descending Northern Cal TRACON
Sat 02:35:23 PM 38.6667 -121.6000 360° North 137 158 400 -700 Descending Northern Cal TRACON
Sat 02:37:00 PM 38.6833 -121.5833 46° Northeast  Level FlightAware Approximate
Sat 02:44:00 PM 38.6954 -121.5908 46° Northeast  Level Estimated
Sat 02:45:00 PM 38.6954 -121.5908 46° Northeast  Level Estimated

Login

Don't have an account? Register now (free) for customized features, flight alerts, and more!